x

Montauk Point -23 Nm Ssw Of Montauk Point, Ny (44017) Wave Buoy

2:50pm - Wed 29th Jul 2015 All times are EDT. -4 hours from GMT.

  • Sig Wave height 2.3ft
  • Swell Direction
  • Peak Period 10s
  • Average Period 5s
  • Wind
    9mph, 11mph gusts
  • Sea Temp 74°f
  • Air Temp 76°f
  • Sea Pressure 1014.4mb
  • Montauk Point -23 Nm Ssw Of Montauk Point, Ny
  • Montauk Point -23 Nm Ssw Of Montauk Point, Ny

More Historic Weather Station data

Upgrade to MSW Pro to gain access to the past 30 days of data for over 8000 Wavebouys and Weather Stations around the globe.

Join Pro

Comparision Forecast

View Surf forecast
   
Wed 07/29 2:50pm 2.5ft 10s 5s 9 11 mph 1014.4mb 74f 76f
1:50pm 2.5ft 11s 6s 9
mph
1014.7mb 75f 76f
11:50am 2ft 8s 6s 7
mph
1015mb 73f 75f
10:50am 2.5ft 10s 6s 7
mph
1015.4mb 73f 74f
9:50am 2ft 7s 5s 4
mph
1015.1mb 73f 74f
8:50am 2ft 9s 5s 4
mph
1015mb 72f 74f
7:50am 2ft 9s 5s  -  2 mph 1014.8mb 72f 73f
6:50am 2ft 8s 5s 4 7 mph 1014.4mb 72f 73f
5:50am 2ft 10s 5s 9
mph
1013.9mb 72f 73f
4:50am 2ft 9s 5s 9 11 mph 1013.5mb 73f 74f
3:50am 2ft 10s 5s 9 11 mph 1013.5mb 73f 74f
2:50am 2ft 10s 5s 11
mph
1013.8mb 74f 75f
1:50am 2ft 11s 5s 11
mph
1014.2mb 74f 74f
12:50am 2ft 7s 5s 11 13 mph 1014.4mb 75f 75f
Tue 07/28 11:50pm 2ft 11s 5s 13 16 mph 1014.5mb 75f 75f
10:50pm 2.5ft 9s 5s 11 13 mph 1014.8mb 75f 75f
9:50pm 2.5ft 10s 5s 9 11 mph 1014.9mb 75f 75f
8:50pm 2.5ft 8s 5s 11 13 mph 1014mb 75f 75f
7:50pm 2.5ft 11s 5s 13 16 mph 1013.8mb 75f 75f
6:50pm 2.5ft 11s 5s 11
mph
1013.8mb 75f 76f
5:50pm 2ft 11s 5s 13
mph
1013.7mb 75f 76f
4:50pm 2ft 11s 5s 11 13 mph 1014mb 75f 75f
3:50pm 2.5ft 11s 5s 11 13 mph 1014.1mb 75f 75f
2:50pm 2ft 9s 5s 11 13 mph 1014.3mb 75f 75f
1:50pm 2ft 9s 5s 11
mph
1014.4mb 75f 75f
12:50pm 2.5ft 11s 6s 9 11 mph 1014.7mb 75f 74f
11:50am 2ft 8s 5s 9
mph
1015.2mb 75f 74f
10:50am 2.5ft 9s 5s 9 11 mph 1015.3mb 74f 74f
9:50am 2.5ft 10s 6s 9
mph
1015.5mb 74f 74f
8:50am 2.5ft 10s 5s 7 9 mph 1016mb 74f 74f
7:50am 2ft 9s 5s 9 11 mph 1015.9mb 74f 74f
6:50am 2.5ft 9s 5s 9 11 mph 1016.1mb 74f 74f
5:50am 2ft 9s 5s 9
mph
1015.8mb 74f 73f
4:50am 2ft 10s 5s 7 9 mph 1015.8mb 74f 74f
3:50am 2ft 10s 5s 9 11 mph 1015.8mb 74f 74f
2:50am 2ft 10s 5s 9 11 mph 1015.8mb 74f 74f
1:50am 2.5ft 11s 5s 7 9 mph 1016.2mb 74f 74f
12:50am 2ft 7s 5s 9
mph
1016.6mb 74f 74f
Mon 07/27 11:50pm 2.5ft 10s 5s 9 11 mph 1016.5mb 74f 74f
10:50pm 2.5ft 11s 5s 9
mph
1016.7mb 74f 74f
9:50pm 2ft 11s 5s 7 9 mph 1016.8mb 74f 74f
8:50pm 2.5ft 11s 6s 7
mph
1016.3mb 74f 75f
7:50pm 2.5ft 11s 5s 9 11 mph 1015.8mb 74f 75f
6:50pm 2.5ft 11s 5s 9
mph
1015.7mb 74f 75f
5:50pm 2.5ft 11s 5s 9 11 mph 1016mb 74f 75f
4:50pm 2.5ft 10s 5s 9 11 mph 1016.1mb 74f 75f
3:50pm 2ft 11s 5s 9 11 mph 1016.3mb 74f 74f
2:50pm 2.5ft 11s 5s 9
mph
1016.7mb 75f 74f
1:50pm 2.5ft 11s 5s 7
mph
1017.2mb 74f 74f
12:50pm 2.5ft 11s 5s  -  2 mph 1017.6mb 74f 74f
11:50am 2.5ft 11s 5s 7
mph
1018mb 74f 74f
10:50am 2.5ft 11s 5s 9 11 mph 1017.5mb 74f 74f
9:50am 2.5ft 5s 5s 7 9 mph 1017.2mb 73f 74f
8:50am 2.5ft 5s 5s 4 7 mph 1017mb 73f 74f
7:50am 2.5ft 5s 5s 4 7 mph 1016.5mb 73f 74f
6:50am 2.5ft 11s 5s 9 11 mph 1016.1mb 73f 74f
5:50am 2.5ft 5s 5s 7
mph
1015.9mb 73f 74f
4:50am 2.5ft 5s 5s 9
mph
1015.6mb 73f 74f
3:50am 3.5ft 5s 5s 11 13 mph 1015.6mb 73f 74f
2:50am 3.5ft 6s 5s 13 16 mph 1015.4mb 73f 74f
1:50am 3.5ft 5s 5s 13 16 mph 1015.5mb 73f 74f
12:50am 3.5ft 5s 5s 13 16 mph 1015.9mb 73f 74f
Sun 07/26 11:50pm 3.5ft 5s 4s 16 18 mph 1015.8mb 73f 74f
10:50pm 3.5ft 5s 4s 16 18 mph 1016.1mb 73f 75f
9:50pm 3.5ft 5s 4s 18 20 mph 1015.9mb 73f 75f
8:50pm 3ft 4s 4s 16 20 mph 1015.6mb 74f 74f
7:50pm 3ft 11s 4s 16 18 mph 1015.7mb 74f 75f
6:50pm 3ft 4s 4s 16 20 mph 1015.3mb 73f 75f
5:50pm 3ft 12s 4s 16 20 mph 1015.1mb 73f 75f
4:50pm 2.5ft 11s 4s 16 20 mph 1015.5mb 73f 75f
3:50pm 2.5ft 11s 4s 16 20 mph 1015.7mb 73f 75f
2:50pm 2.5ft 11s 4s 16 18 mph 1015.9mb 73f 75f
1:50pm 2ft 11s 4s 13 16 mph 1016.2mb 73f 74f
12:50pm 2ft 11s 4s 13 16 mph 1016.4mb 73f 74f
11:50am 2.5ft 11s 5s 11 13 mph 1016.5mb 73f 74f
10:50am 2ft 12s 4s 11 13 mph 1016.6mb 73f 74f
9:50am 2ft 11s 5s 11 13 mph 1016.6mb 73f 73f
8:50am 2ft 12s 5s 11 13 mph 1016.7mb 73f 73f
7:50am 1.6ft 11s 5s 11 13 mph 1016.4mb 73f 73f
6:50am 2ft 11s 5s 11 13 mph 1015.8mb 73f 73f
5:50am 2.5ft 12s 6s 11
mph
1015.4mb 73f 73f
4:50am 2ft 11s 5s 9 11 mph 1015.5mb 73f 73f
3:50am 2ft 11s 5s 11
mph
1015.6mb 73f 73f
2:50am 2ft 12s 5s 11 13 mph 1015.6mb 73f 72f
1:50am 1.6ft 12s 5s 11 13 mph 1015.9mb 73f 72f
12:50am 2ft 11s 5s 11 13 mph 1016.2mb 73f 72f
Sat 07/25 11:50pm 2ft 12s 5s 11 13 mph 1016.4mb 73f 72f
10:50pm 2ft 11s 5s 11 13 mph 1016.4mb 73f 72f
9:50pm 2ft 11s 5s 11 13 mph 1016.4mb 73f 71f
8:50pm 2ft 11s 5s 11 13 mph 1016.1mb 73f 71f